Terminal Aerodrome Forecast
Issued by NWS

Home | Current Version | Previous Version | Text Only | Print | Product List | Glossary On
Versions: 1 2 3 4 5 6 7 8 9 10 11 12 13 14 15 16 17 18 19 20 21 22 23 24 25 26 27 28 29 30 31 32 33 34 35 36 37 38 39 40 41 42 43 44 45 46 47 48 49 50
000
FTUS43 KMKX 061525 AAB
TAFUES
TAF AMD
KUES 061525Z 0615/0712 09005KT 1 1/2SM -TSRA BR OVC006CB
     FM061600 11005KT 3SM BR OVC007
     FM061700 11006KT 5SM BR BKN010
     FM061800 12007KT P6SM SCT015 BKN035
     FM062000 13008KT P6SM SCT060 SCT100
     FM070300 12004KT 5SM BR SCT250
     FM071100 18006KT P6SM SCT250=

USA.gov is the U.S. government's official web portal to all federal, state and local government web resources and services.